sensor_id;sensor_type;location;lat;lon;timestamp;P1;durP1;ratioP1;P2;durP2;ratioP2
5845;SDS011;2949;50.778;7.094;2023-01-01T00:01:17;8.23;;;5.27;;
5845;SDS011;2949;50.778;7.094;2023-01-01T00:03:43;9.87;;;5.00;;
5845;SDS011;2949;50.778;7.094;2023-01-01T00:06:13;8.20;;;4.40;;
5845;SDS011;2949;50.778;7.094;2023-01-01T00:08:39;5.87;;;4.27;;
5845;SDS011;2949;50.778;7.094;2023-01-01T00:11:05;5.80;;;3.87;;
5845;SDS011;2949;50.778;7.094;2023-01-01T00:13:33;10.70;;;3.43;;
5845;SDS011;2949;50.778;7.094;2023-01-01T00:16:04;9.53;;;3.10;;
5845;SDS011;2949;50.778;7.094;2023-01-01T00:18:30;5.50;;;2.57;;
5845;SDS011;2949;50.778;7.094;2023-01-01T00:21:06;4.03;;;2.13;;
5845;SDS011;2949;50.778;7.094;2023-01-01T00:23:36;5.90;;;3.40;;
5845;SDS011;2949;50.778;7.094;2023-01-01T00:26:09;8.03;;;2.70;;
5845;SDS011;2949;50.778;7.094;2023-01-01T00:28:36;8.03;;;2.20;;
5845;SDS011;2949;50.778;7.094;2023-01-01T00:31:19;3.70;;;1.53;;
5845;SDS011;2949;50.778;7.094;2023-01-01T00:33:49;3.93;;;2.00;;
5845;SDS011;2949;50.778;7.094;2023-01-01T00:36:16;3.40;;;1.80;;
5845;SDS011;2949;50.778;7.094;2023-01-01T00:38:42;7.03;;;1.40;;
5845;SDS011;2949;50.778;7.094;2023-01-01T00:41:09;3.13;;;1.80;;
5845;SDS011;2949;50.778;7.094;2023-01-01T00:43:36;5.50;;;1.90;;
5845;SDS011;2949;50.778;7.094;2023-01-01T00:46:02;2.00;;;1.60;;
5845;SDS011;2949;50.778;7.094;2023-01-01T00:48:29;0.93;;;0.93;;
5845;SDS011;2949;50.778;7.094;2023-01-01T00:50:54;1.80;;;1.33;;
5845;SDS011;2949;50.778;7.094;2023-01-01T00:53:20;3.33;;;1.67;;
5845;SDS011;2949;50.778;7.094;2023-01-01T00:55:46;5.23;;;1.20;;
5845;SDS011;2949;50.778;7.094;2023-01-01T00:58:14;2.07;;;1.40;;
5845;SDS011;2949;50.778;7.094;2023-01-01T01:00:41;2.00;;;1.30;;
5845;SDS011;2949;50.778;7.094;2023-01-01T01:03:07;7.60;;;1.27;;
5845;SDS011;2949;50.778;7.094;2023-01-01T01:05:34;2.30;;;1.20;;
5845;SDS011;2949;50.778;7.094;2023-01-01T01:08:02;6.20;;;1.63;;
5845;SDS011;2949;50.778;7.094;2023-01-01T01:10:27;3.03;;;1.23;;
5845;SDS011;2949;50.778;7.094;2023-01-01T01:12:53;5.63;;;1.50;;
5845;SDS011;2949;50.778;7.094;2023-01-01T01:15:19;2.03;;;1.10;;
5845;SDS011;2949;50.778;7.094;2023-01-01T01:17:45;3.63;;;1.33;;
5845;SDS011;2949;50.778;7.094;2023-01-01T01:20:11;2.33;;;1.50;;
5845;SDS011;2949;50.778;7.094;2023-01-01T01:22:37;3.83;;;1.53;;
5845;SDS011;2949;50.778;7.094;2023-01-01T01:25:04;3.80;;;1.63;;
5845;SDS011;2949;50.778;7.094;2023-01-01T01:27:30;2.00;;;1.30;;
5845;SDS011;2949;50.778;7.094;2023-01-01T01:29:56;2.00;;;1.13;;
5845;SDS011;2949;50.778;7.094;2023-01-01T01:32:21;4.23;;;1.40;;
5845;SDS011;2949;50.778;7.094;2023-01-01T01:34:47;3.03;;;1.40;;
5845;SDS011;2949;50.778;7.094;2023-01-01T01:37:13;2.33;;;1.27;;
5845;SDS011;2949;50.778;7.094;2023-01-01T01:39:38;3.30;;;1.43;;
5845;SDS011;2949;50.778;7.094;2023-01-01T01:42:05;2.27;;;1.17;;
5845;SDS011;2949;50.778;7.094;2023-01-01T01:44:47;4.10;;;1.47;;
5845;SDS011;2949;50.778;7.094;2023-01-01T01:50:31;2.53;;;1.40;;
5845;SDS011;2949;50.778;7.094;2023-01-01T01:55:31;2.17;;;1.43;;
5845;SDS011;2949;50.778;7.094;2023-01-01T01:58:00;5.70;;;1.60;;
5845;SDS011;2949;50.778;7.094;2023-01-01T02:00:26;7.00;;;1.50;;
5845;SDS011;2949;50.778;7.094;2023-01-01T02:02:56;2.93;;;1.23;;
5845;SDS011;2949;50.778;7.094;2023-01-01T02:05:32;1.87;;;1.47;;
5845;SDS011;2949;50.778;7.094;2023-01-01T02:07:59;1.43;;;1.17;;
5845;SDS011;2949;50.778;7.094;2023-01-01T02:10:26;3.33;;;1.97;;
5845;SDS011;2949;50.778;7.094;2023-01-01T02:12:52;4.00;;;1.40;;
5845;SDS011;2949;50.778;7.094;2023-01-01T02:15:20;2.90;;;1.17;;
5845;SDS011;2949;50.778;7.094;2023-01-01T02:17:58;5.67;;;1.50;;
5845;SDS011;2949;50.778;7.094;2023-01-01T02:23:21;2.63;;;1.10;;
5845;SDS011;2949;50.778;7.094;2023-01-01T02:29:00;2.40;;;1.00;;
5845;SDS011;2949;50.778;7.094;2023-01-01T02:31:30;2.03;;;1.40;;
5845;SDS011;2949;50.778;7.094;2023-01-01T02:34:00;5.90;;;1.60;;
5845;SDS011;2949;50.778;7.094;2023-01-01T02:36:30;2.20;;;1.03;;
5845;SDS011;2949;50.778;7.094;2023-01-01T02:39:00;1.63;;;1.10;;
5845;SDS011;2949;50.778;7.094;2023-01-01T02:41:51;3.43;;;1.57;;
5845;SDS011;2949;50.778;7.094;2023-01-01T02:44:16;3.33;;;1.40;;
5845;SDS011;2949;50.778;7.094;2023-01-01T02:46:44;2.87;;;1.37;;
5845;SDS011;2949;50.778;7.094;2023-01-01T02:49:10;1.50;;;1.10;;
5845;SDS011;2949;50.778;7.094;2023-01-01T02:51:41;5.10;;;1.40;;
5845;SDS011;2949;50.778;7.094;2023-01-01T02:54:30;2.30;;;1.23;;
5845;SDS011;2949;50.778;7.094;2023-01-01T03:03:05;3.13;;;1.50;;
5845;SDS011;2949;50.778;7.094;2023-01-01T03:08:44;4.73;;;2.10;;
5845;SDS011;2949;50.778;7.094;2023-01-01T03:11:13;10.93;;;1.70;;
5845;SDS011;2949;50.778;7.094;2023-01-01T03:14:00;1.73;;;0.90;;
5845;SDS011;2949;50.778;7.094;2023-01-01T03:16:33;1.47;;;1.00;;
5845;SDS011;2949;50.778;7.094;2023-01-01T03:19:18;1.50;;;1.17;;
5845;SDS011;2949;50.778;7.094;2023-01-01T03:27:03;1.40;;;1.17;;
5845;SDS011;2949;50.778;7.094;2023-01-01T03:29:32;3.67;;;0.90;;
5845;SDS011;2949;50.778;7.094;2023-01-01T03:32:02;1.67;;;0.93;;
5845;SDS011;2949;50.778;7.094;2023-01-01T03:34:31;6.63;;;1.77;;
5845;SDS011;2949;50.778;7.094;2023-01-01T03:37:03;2.33;;;1.10;;
5845;SDS011;2949;50.778;7.094;2023-01-01T03:39:40;7.30;;;1.20;;
5845;SDS011;2949;50.778;7.094;2023-01-01T03:45:15;3.53;;;1.30;;
5845;SDS011;2949;50.778;7.094;2023-01-01T03:47:36;2.57;;;1.07;;
5845;SDS011;2949;50.778;7.094;2023-01-01T03:50:02;6.03;;;1.33;;
5845;SDS011;2949;50.778;7.094;2023-01-01T03:55:20;5.80;;;1.33;;
5845;SDS011;2949;50.778;7.094;2023-01-01T03:58:00;5.40;;;0.90;;
5845;SDS011;2949;50.778;7.094;2023-01-01T04:00:49;3.60;;;1.57;;
5845;SDS011;2949;50.778;7.094;2023-01-01T04:03:34;3.60;;;1.17;;
5845;SDS011;2949;50.778;7.094;2023-01-01T04:06:01;2.90;;;1.23;;
5845;SDS011;2949;50.778;7.094;2023-01-01T04:08:27;5.00;;;1.43;;
5845;SDS011;2949;50.778;7.094;2023-01-01T04:10:56;1.37;;;1.03;;
5845;SDS011;2949;50.778;7.094;2023-01-01T04:13:24;4.40;;;1.30;;
5845;SDS011;2949;50.778;7.094;2023-01-01T04:15:50;2.37;;;0.90;;
5845;SDS011;2949;50.778;7.094;2023-01-01T04:18:15;3.20;;;1.40;;
5845;SDS011;2949;50.778;7.094;2023-01-01T04:20:41;2.73;;;1.10;;
5845;SDS011;2949;50.778;7.094;2023-01-01T04:23:08;7.80;;;2.93;;
5845;SDS011;2949;50.778;7.094;2023-01-01T04:25:34;4.67;;;0.90;;
5845;SDS011;2949;50.778;7.094;2023-01-01T04:27:59;2.93;;;1.10;;
5845;SDS011;2949;50.778;7.094;2023-01-01T04:30:28;1.27;;;1.17;;
5845;SDS011;2949;50.778;7.094;2023-01-01T04:32:54;2.73;;;1.30;;
5845;SDS011;2949;50.778;7.094;2023-01-01T04:35:20;2.97;;;0.87;;
5845;SDS011;2949;50.778;7.094;2023-01-01T04:37:45;5.10;;;1.00;;
5845;SDS011;2949;50.778;7.094;2023-01-01T04:40:11;1.27;;;1.07;;
5845;SDS011;2949;50.778;7.094;2023-01-01T04:42:38;1.03;;;0.60;;
5845;SDS011;2949;50.778;7.094;2023-01-01T04:45:04;0.90;;;0.80;;
5845;SDS011;2949;50.778;7.094;2023-01-01T04:47:30;4.13;;;1.10;;
5845;SDS011;2949;50.778;7.094;2023-01-01T04:49:55;2.30;;;1.10;;
5845;SDS011;2949;50.778;7.094;2023-01-01T04:52:21;1.70;;;0.87;;
5845;SDS011;2949;50.778;7.094;2023-01-01T04:54:47;2.17;;;0.93;;
5845;SDS011;2949;50.778;7.094;2023-01-01T04:57:13;4.40;;;1.20;;
5845;SDS011;2949;50.778;7.094;2023-01-01T04:59:39;3.93;;;1.27;;
5845;SDS011;2949;50.778;7.094;2023-01-01T05:02:05;2.00;;;0.90;;
5845;SDS011;2949;50.778;7.094;2023-01-01T05:04:31;7.57;;;0.80;;
5845;SDS011;2949;50.778;7.094;2023-01-01T05:06:56;3.87;;;1.20;;
5845;SDS011;2949;50.778;7.094;2023-01-01T05:09:22;4.60;;;1.33;;
5845;SDS011;2949;50.778;7.094;2023-01-01T05:11:47;4.00;;;0.87;;
5845;SDS011;2949;50.778;7.094;2023-01-01T05:14:13;5.60;;;1.20;;
5845;SDS011;2949;50.778;7.094;2023-01-01T05:16:39;1.93;;;1.10;;
5845;SDS011;2949;50.778;7.094;2023-01-01T05:19:05;1.90;;;1.40;;
5845;SDS011;2949;50.778;7.094;2023-01-01T05:21:32;1.20;;;1.10;;
5845;SDS011;2949;50.778;7.094;2023-01-01T05:24:01;7.07;;;1.50;;
5845;SDS011;2949;50.778;7.094;2023-01-01T05:26:29;1.50;;;1.13;;
5845;SDS011;2949;50.778;7.094;2023-01-01T05:28:57;2.23;;;1.27;;
5845;SDS011;2949;50.778;7.094;2023-01-01T05:31:24;8.57;;;1.27;;
5845;SDS011;2949;50.778;7.094;2023-01-01T05:33:52;7.63;;;1.17;;
5845;SDS011;2949;50.778;7.094;2023-01-01T05:36:22;3.23;;;1.30;;
5845;SDS011;2949;50.778;7.094;2023-01-01T05:38:49;1.83;;;1.33;;
5845;SDS011;2949;50.778;7.094;2023-01-01T05:41:16;1.17;;;0.93;;
5845;SDS011;2949;50.778;7.094;2023-01-01T05:43:43;1.63;;;1.10;;
5845;SDS011;2949;50.778;7.094;2023-01-01T05:48:39;3.50;;;1.00;;
5845;SDS011;2949;50.778;7.094;2023-01-01T05:51:12;5.43;;;1.20;;
5845;SDS011;2949;50.778;7.094;2023-01-01T05:53:39;3.30;;;1.03;;
5845;SDS011;2949;50.778;7.094;2023-01-01T05:56:05;2.23;;;1.40;;
5845;SDS011;2949;50.778;7.094;2023-01-01T05:58:32;2.00;;;1.20;;
5845;SDS011;2949;50.778;7.094;2023-01-01T06:03:31;3.20;;;1.43;;
5845;SDS011;2949;50.778;7.094;2023-01-01T06:06:01;5.70;;;1.50;;
5845;SDS011;2949;50.778;7.094;2023-01-01T06:08:27;3.43;;;1.10;;
5845;SDS011;2949;50.778;7.094;2023-01-01T06:10:57;3.37;;;1.20;;
5845;SDS011;2949;50.778;7.094;2023-01-01T06:13:24;1.40;;;1.30;;
5845;SDS011;2949;50.778;7.094;2023-01-01T06:15:53;7.33;;;2.03;;
5845;SDS011;2949;50.778;7.094;2023-01-01T06:18:23;4.40;;;1.37;;
5845;SDS011;2949;50.778;7.094;2023-01-01T06:20:49;1.40;;;1.03;;
5845;SDS011;2949;50.778;7.094;2023-01-01T06:23:15;3.73;;;1.10;;
5845;SDS011;2949;50.778;7.094;2023-01-01T06:25:41;3.33;;;1.43;;
5845;SDS011;2949;50.778;7.094;2023-01-01T06:28:06;4.53;;;1.10;;
5845;SDS011;2949;50.778;7.094;2023-01-01T06:30:32;1.60;;;0.80;;
5845;SDS011;2949;50.778;7.094;2023-01-01T06:32:58;1.70;;;0.83;;
5845;SDS011;2949;50.778;7.094;2023-01-01T06:35:25;3.03;;;1.20;;
5845;SDS011;2949;50.778;7.094;2023-01-01T06:37:54;2.43;;;1.13;;
5845;SDS011;2949;50.778;7.094;2023-01-01T06:40:22;1.97;;;1.10;;
5845;SDS011;2949;50.778;7.094;2023-01-01T06:42:51;6.40;;;1.30;;
5845;SDS011;2949;50.778;7.094;2023-01-01T06:45:18;3.33;;;1.20;;
5845;SDS011;2949;50.778;7.094;2023-01-01T06:47:44;1.57;;;1.40;;
5845;SDS011;2949;50.778;7.094;2023-01-01T06:50:09;1.50;;;1.03;;
5845;SDS011;2949;50.778;7.094;2023-01-01T06:52:35;1.60;;;1.10;;
5845;SDS011;2949;50.778;7.094;2023-01-01T06:55:00;1.17;;;0.90;;
5845;SDS011;2949;50.778;7.094;2023-01-01T06:57:26;4.93;;;1.33;;
5845;SDS011;2949;50.778;7.094;2023-01-01T06:59:51;1.20;;;1.13;;
5845;SDS011;2949;50.778;7.094;2023-01-01T07:02:17;4.90;;;1.27;;
5845;SDS011;2949;50.778;7.094;2023-01-01T07:04:43;1.07;;;0.83;;
5845;SDS011;2949;50.778;7.094;2023-01-01T07:07:08;4.97;;;1.70;;
5845;SDS011;2949;50.778;7.094;2023-01-01T07:09:34;4.67;;;2.23;;
5845;SDS011;2949;50.778;7.094;2023-01-01T07:11:59;2.40;;;1.13;;
5845;SDS011;2949;50.778;7.094;2023-01-01T07:14:25;3.93;;;1.07;;
5845;SDS011;2949;50.778;7.094;2023-01-01T07:16:50;1.47;;;1.13;;
5845;SDS011;2949;50.778;7.094;2023-01-01T07:19:16;3.20;;;1.40;;
5845;SDS011;2949;50.778;7.094;2023-01-01T07:21:45;1.60;;;1.50;;
5845;SDS011;2949;50.778;7.094;2023-01-01T07:24:19;6.73;;;1.53;;
5845;SDS011;2949;50.778;7.094;2023-01-01T07:26:45;6.77;;;1.20;;
5845;SDS011;2949;50.778;7.094;2023-01-01T07:29:11;3.00;;;1.43;;
5845;SDS011;2949;50.778;7.094;2023-01-01T07:31:41;3.30;;;1.10;;
5845;SDS011;2949;50.778;7.094;2023-01-01T07:34:09;3.03;;;1.40;;
5845;SDS011;2949;50.778;7.094;2023-01-01T07:36:40;2.60;;;1.00;;
5845;SDS011;2949;50.778;7.094;2023-01-01T07:39:06;1.93;;;1.43;;
5845;SDS011;2949;50.778;7.094;2023-01-01T07:41:32;4.67;;;1.00;;
5845;SDS011;2949;50.778;7.094;2023-01-01T07:43:58;3.67;;;1.60;;
5845;SDS011;2949;50.778;7.094;2023-01-01T07:46:24;10.17;;;1.30;;
5845;SDS011;2949;50.778;7.094;2023-01-01T07:48:49;4.13;;;1.80;;
5845;SDS011;2949;50.778;7.094;2023-01-01T07:51:15;3.83;;;1.13;;
5845;SDS011;2949;50.778;7.094;2023-01-01T07:53:41;3.33;;;1.43;;
5845;SDS011;2949;50.778;7.094;2023-01-01T07:56:06;2.10;;;1.20;;
5845;SDS011;2949;50.778;7.094;2023-01-01T07:58:32;2.30;;;1.30;;
5845;SDS011;2949;50.778;7.094;2023-01-01T08:00:58;3.10;;;1.30;;
5845;SDS011;2949;50.778;7.094;2023-01-01T08:03:24;4.67;;;1.13;;
5845;SDS011;2949;50.778;7.094;2023-01-01T08:05:49;3.73;;;1.90;;
5845;SDS011;2949;50.778;7.094;2023-01-01T08:08:15;15.40;;;1.60;;
5845;SDS011;2949;50.778;7.094;2023-01-01T08:10:40;1.60;;;0.93;;
5845;SDS011;2949;50.778;7.094;2023-01-01T08:13:06;7.13;;;1.17;;
5845;SDS011;2949;50.778;7.094;2023-01-01T08:15:33;1.73;;;1.03;;
5845;SDS011;2949;50.778;7.094;2023-01-01T08:17:59;1.93;;;1.40;;
5845;SDS011;2949;50.778;7.094;2023-01-01T08:20:27;1.50;;;1.17;;
5845;SDS011;2949;50.778;7.094;2023-01-01T08:22:53;6.73;;;1.37;;
5845;SDS011;2949;50.778;7.094;2023-01-01T08:25:20;9.10;;;1.23;;
5845;SDS011;2949;50.778;7.094;2023-01-01T08:27:49;2.10;;;1.27;;
5845;SDS011;2949;50.778;7.094;2023-01-01T08:30:18;3.90;;;1.30;;
5845;SDS011;2949;50.778;7.094;2023-01-01T08:32:45;2.70;;;1.30;;
5845;SDS011;2949;50.778;7.094;2023-01-01T08:35:12;4.07;;;1.50;;
5845;SDS011;2949;50.778;7.094;2023-01-01T08:37:47;1.30;;;1.17;;
5845;SDS011;2949;50.778;7.094;2023-01-01T08:40:19;5.07;;;1.93;;
5845;SDS011;2949;50.778;7.094;2023-01-01T08:42:47;6.87;;;1.13;;
5845;SDS011;2949;50.778;7.094;2023-01-01T08:45:16;4.97;;;1.30;;
5845;SDS011;2949;50.778;7.094;2023-01-01T08:47:47;4.30;;;2.00;;
5845;SDS011;2949;50.778;7.094;2023-01-01T08:50:17;4.00;;;1.40;;
5845;SDS011;2949;50.778;7.094;2023-01-01T08:52:45;10.13;;;1.50;;
5845;SDS011;2949;50.778;7.094;2023-01-01T08:55:11;3.53;;;1.30;;
5845;SDS011;2949;50.778;7.094;2023-01-01T08:57:36;4.67;;;1.50;;
5845;SDS011;2949;50.778;7.094;2023-01-01T09:00:02;9.10;;;1.40;;
5845;SDS011;2949;50.778;7.094;2023-01-01T09:02:28;3.77;;;1.17;;
5845;SDS011;2949;50.778;7.094;2023-01-01T09:04:54;6.67;;;1.60;;
5845;SDS011;2949;50.778;7.094;2023-01-01T09:07:20;2.60;;;1.33;;
5845;SDS011;2949;50.778;7.094;2023-01-01T09:09:45;12.63;;;1.63;;
5845;SDS011;2949;50.778;7.094;2023-01-01T09:12:13;5.73;;;1.13;;
5845;SDS011;2949;50.778;7.094;2023-01-01T09:14:40;7.00;;;1.50;;
5845;SDS011;2949;50.778;7.094;2023-01-01T09:17:06;2.20;;;1.10;;
5845;SDS011;2949;50.778;7.094;2023-01-01T09:19:32;5.33;;;1.57;;
5845;SDS011;2949;50.778;7.094;2023-01-01T09:21:57;8.00;;;1.30;;
5845;SDS011;2949;50.778;7.094;2023-01-01T09:24:23;5.63;;;2.20;;
5845;SDS011;2949;50.778;7.094;2023-01-01T09:26:48;9.40;;;1.63;;
5845;SDS011;2949;50.778;7.094;2023-01-01T09:29:15;4.77;;;1.20;;
5845;SDS011;2949;50.778;7.094;2023-01-01T09:31:42;4.13;;;1.47;;
5845;SDS011;2949;50.778;7.094;2023-01-01T09:34:08;1.77;;;0.80;;
5845;SDS011;2949;50.778;7.094;2023-01-01T09:36:34;3.97;;;1.33;;
5845;SDS011;2949;50.778;7.094;2023-01-01T09:39:00;3.73;;;1.20;;
5845;SDS011;2949;50.778;7.094;2023-01-01T09:44:26;8.03;;;1.90;;
5845;SDS011;2949;50.778;7.094;2023-01-01T09:46:58;5.93;;;1.20;;
5845;SDS011;2949;50.778;7.094;2023-01-01T09:49:44;3.70;;;1.13;;
5845;SDS011;2949;50.778;7.094;2023-01-01T09:52:12;6.93;;;1.27;;
5845;SDS011;2949;50.778;7.094;2023-01-01T09:54:39;5.50;;;0.90;;
5845;SDS011;2949;50.778;7.094;2023-01-01T09:57:11;9.60;;;0.97;;
5845;SDS011;2949;50.778;7.094;2023-01-01T09:59:38;3.70;;;1.03;;
5845;SDS011;2949;50.778;7.094;2023-01-01T10:02:12;6.73;;;1.60;;
5845;SDS011;2949;50.778;7.094;2023-01-01T10:05:35;3.27;;;0.90;;
5845;SDS011;2949;50.778;7.094;2023-01-01T10:08:09;3.90;;;1.47;;
5845;SDS011;2949;50.778;7.094;2023-01-01T10:10:56;4.57;;;1.47;;
5845;SDS011;2949;50.778;7.094;2023-01-01T10:13:40;4.87;;;1.20;;
5845;SDS011;2949;50.778;7.094;2023-01-01T10:19:10;4.70;;;1.17;;
5845;SDS011;2949;50.778;7.094;2023-01-01T10:21:40;4.67;;;1.20;;
5845;SDS011;2949;50.778;7.094;2023-01-01T10:26:55;6.87;;;1.47;;
5845;SDS011;2949;50.778;7.094;2023-01-01T10:29:23;2.90;;;1.17;;
5845;SDS011;2949;50.778;7.094;2023-01-01T10:32:02;8.70;;;1.60;;
5845;SDS011;2949;50.778;7.094;2023-01-01T10:34:40;7.90;;;1.57;;
5845;SDS011;2949;50.778;7.094;2023-01-01T10:37:07;4.00;;;1.43;;
5845;SDS011;2949;50.778;7.094;2023-01-01T10:39:34;3.87;;;1.20;;
5845;SDS011;2949;50.778;7.094;2023-01-01T10:42:00;2.20;;;1.20;;
5845;SDS011;2949;50.778;7.094;2023-01-01T10:44:30;3.10;;;1.20;;
5845;SDS011;2949;50.778;7.094;2023-01-01T10:46:58;2.73;;;1.70;;
5845;SDS011;2949;50.778;7.094;2023-01-01T10:49:29;2.80;;;1.20;;
5845;SDS011;2949;50.778;7.094;2023-01-01T10:51:57;4.17;;;1.13;;
5845;SDS011;2949;50.778;7.094;2023-01-01T10:54:30;3.07;;;1.27;;
5845;SDS011;2949;50.778;7.094;2023-01-01T10:56:58;3.27;;;2.30;;
5845;SDS011;2949;50.778;7.094;2023-01-01T10:59:38;3.60;;;1.20;;
5845;SDS011;2949;50.778;7.094;2023-01-01T11:02:14;7.27;;;1.23;;
5845;SDS011;2949;50.778;7.094;2023-01-01T11:04:39;2.97;;;1.03;;
5845;SDS011;2949;50.778;7.094;2023-01-01T11:07:05;3.67;;;1.00;;
5845;SDS011;2949;50.778;7.094;2023-01-01T11:09:31;2.73;;;0.83;;
5845;SDS011;2949;50.778;7.094;2023-01-01T11:12:01;2.43;;;0.70;;
5845;SDS011;2949;50.778;7.094;2023-01-01T11:14:42;2.57;;;1.17;;
5845;SDS011;2949;50.778;7.094;2023-01-01T11:17:47;4.00;;;1.30;;
5845;SDS011;2949;50.778;7.094;2023-01-01T11:20:06;5.47;;;1.00;;
5845;SDS011;2949;50.778;7.094;2023-01-01T11:22:45;3.20;;;1.03;;
5845;SDS011;2949;50.778;7.094;2023-01-01T11:27:47;5.23;;;0.93;;
5845;SDS011;2949;50.778;7.094;2023-01-01T11:30:27;2.77;;;1.03;;
5845;SDS011;2949;50.778;7.094;2023-01-01T11:32:55;5.77;;;1.27;;
5845;SDS011;2949;50.778;7.094;2023-01-01T11:35:27;5.87;;;1.10;;
5845;SDS011;2949;50.778;7.094;2023-01-01T11:37:55;7.53;;;1.60;;
5845;SDS011;2949;50.778;7.094;2023-01-01T11:40:35;4.80;;;1.27;;
5845;SDS011;2949;50.778;7.094;2023-01-01T11:43:03;2.10;;;1.07;;
5845;SDS011;2949;50.778;7.094;2023-01-01T11:45:32;14.60;;;1.43;;
5845;SDS011;2949;50.778;7.094;2023-01-01T11:48:03;4.27;;;1.03;;
5845;SDS011;2949;50.778;7.094;2023-01-01T11:50:40;5.77;;;1.17;;
5845;SDS011;2949;50.778;7.094;2023-01-01T11:53:18;5.30;;;1.10;;
5845;SDS011;2949;50.778;7.094;2023-01-01T11:58:36;2.13;;;1.13;;
5845;SDS011;2949;50.778;7.094;2023-01-01T12:01:56;6.50;;;1.20;;
5845;SDS011;2949;50.778;7.094;2023-01-01T12:04:56;3.13;;;1.13;;
5845;SDS011;2949;50.778;7.094;2023-01-01T12:07:41;4.40;;;1.10;;
5845;SDS011;2949;50.778;7.094;2023-01-01T12:10:31;14.60;;;1.13;;
5845;SDS011;2949;50.778;7.094;2023-01-01T12:12:59;3.17;;;1.10;;
5845;SDS011;2949;50.778;7.094;2023-01-01T12:18:19;6.47;;;1.03;;
5845;SDS011;2949;50.778;7.094;2023-01-01T12:20:52;7.90;;;1.13;;
5845;SDS011;2949;50.778;7.094;2023-01-01T12:23:25;3.20;;;1.10;;
5845;SDS011;2949;50.778;7.094;2023-01-01T12:25:56;3.97;;;1.10;;
5845;SDS011;2949;50.778;7.094;2023-01-01T12:28:43;2.63;;;0.60;;
5845;SDS011;2949;50.778;7.094;2023-01-01T12:31:39;2.73;;;0.90;;
5845;SDS011;2949;50.778;7.094;2023-01-01T12:34:40;3.07;;;1.20;;
5845;SDS011;2949;50.778;7.094;2023-01-01T12:43:11;4.33;;;1.17;;
5845;SDS011;2949;50.778;7.094;2023-01-01T12:45:50;2.40;;;0.90;;
5845;SDS011;2949;50.778;7.094;2023-01-01T12:59:42;3.13;;;1.00;;
5845;SDS011;2949;50.778;7.094;2023-01-01T13:02:24;2.53;;;0.67;;
5845;SDS011;2949;50.778;7.094;2023-01-01T13:04:54;12.63;;;1.70;;
5845;SDS011;2949;50.778;7.094;2023-01-01T13:07:26;5.60;;;1.30;;
5845;SDS011;2949;50.778;7.094;2023-01-01T13:10:06;3.00;;;1.03;;
5845;SDS011;2949;50.778;7.094;2023-01-01T13:12:42;4.60;;;1.10;;
5845;SDS011;2949;50.778;7.094;2023-01-01T13:18:04;5.93;;;1.20;;
5845;SDS011;2949;50.778;7.094;2023-01-01T13:20:38;4.73;;;1.23;;
5845;SDS011;2949;50.778;7.094;2023-01-01T13:45:05;5.10;;;1.23;;
5845;SDS011;2949;50.778;7.094;2023-01-01T13:47:43;1.87;;;0.87;;
5845;SDS011;2949;50.778;7.094;2023-01-01T13:56:03;13.93;;;1.60;;
5845;SDS011;2949;50.778;7.094;2023-01-01T14:04:06;2.90;;;1.13;;
5845;SDS011;2949;50.778;7.094;2023-01-01T14:06:51;2.27;;;1.20;;
5845;SDS011;2949;50.778;7.094;2023-01-01T14:09:19;6.90;;;1.53;;
5845;SDS011;2949;50.778;7.094;2023-01-01T14:11:46;1.50;;;0.90;;
5845;SDS011;2949;50.778;7.094;2023-01-01T14:16:58;3.20;;;1.07;;
5845;SDS011;2949;50.778;7.094;2023-01-01T14:19:26;5.80;;;1.63;;
5845;SDS011;2949;50.778;7.094;2023-01-01T14:21:53;2.60;;;1.10;;
5845;SDS011;2949;50.778;7.094;2023-01-01T14:24:19;4.03;;;1.00;;
5845;SDS011;2949;50.778;7.094;2023-01-01T14:26:46;8.23;;;2.47;;
5845;SDS011;2949;50.778;7.094;2023-01-01T14:29:16;2.03;;;1.23;;
5845;SDS011;2949;50.778;7.094;2023-01-01T14:31:46;2.67;;;1.03;;
5845;SDS011;2949;50.778;7.094;2023-01-01T14:34:13;1.83;;;1.20;;
5845;SDS011;2949;50.778;7.094;2023-01-01T14:36:48;3.47;;;1.87;;
5845;SDS011;2949;50.778;7.094;2023-01-01T14:39:26;7.77;;;1.50;;
5845;SDS011;2949;50.778;7.094;2023-01-01T14:42:06;1.70;;;0.83;;
5845;SDS011;2949;50.778;7.094;2023-01-01T14:44:42;2.13;;;0.90;;
5845;SDS011;2949;50.778;7.094;2023-01-01T14:47:19;1.20;;;1.07;;
5845;SDS011;2949;50.778;7.094;2023-01-01T14:49:49;2.53;;;0.80;;
5845;SDS011;2949;50.778;7.094;2023-01-01T14:52:25;3.10;;;1.13;;
5845;SDS011;2949;50.778;7.094;2023-01-01T14:54:55;2.27;;;1.10;;
5845;SDS011;2949;50.778;7.094;2023-01-01T14:57:24;3.67;;;0.87;;
5845;SDS011;2949;50.778;7.094;2023-01-01T14:59:52;2.63;;;1.07;;
5845;SDS011;2949;50.778;7.094;2023-01-01T15:02:23;2.10;;;0.93;;
5845;SDS011;2949;50.778;7.094;2023-01-01T15:04:50;3.50;;;1.03;;
5845;SDS011;2949;50.778;7.094;2023-01-01T15:09:49;2.20;;;1.20;;
5845;SDS011;2949;50.778;7.094;2023-01-01T15:12:17;5.27;;;1.30;;
5845;SDS011;2949;50.778;7.094;2023-01-01T15:14:45;2.50;;;1.37;;
5845;SDS011;2949;50.778;7.094;2023-01-01T15:17:12;2.70;;;1.30;;
5845;SDS011;2949;50.778;7.094;2023-01-01T15:19:43;3.90;;;1.43;;
5845;SDS011;2949;50.778;7.094;2023-01-01T15:22:25;3.50;;;1.77;;
5845;SDS011;2949;50.778;7.094;2023-01-01T15:24:53;3.13;;;1.30;;
5845;SDS011;2949;50.778;7.094;2023-01-01T15:27:29;6.50;;;1.27;;
5845;SDS011;2949;50.778;7.094;2023-01-01T15:29:59;6.37;;;1.77;;
5845;SDS011;2949;50.778;7.094;2023-01-01T15:32:27;2.90;;;1.80;;
5845;SDS011;2949;50.778;7.094;2023-01-01T15:34:55;5.00;;;2.07;;
5845;SDS011;2949;50.778;7.094;2023-01-01T15:37:29;3.13;;;1.63;;
5845;SDS011;2949;50.778;7.094;2023-01-01T15:39:58;2.23;;;1.40;;
5845;SDS011;2949;50.778;7.094;2023-01-01T15:47:43;4.30;;;1.77;;
5845;SDS011;2949;50.778;7.094;2023-01-01T15:50:11;2.37;;;1.27;;
5845;SDS011;2949;50.778;7.094;2023-01-01T15:52:45;4.10;;;2.10;;
5845;SDS011;2949;50.778;7.094;2023-01-01T15:55:14;2.70;;;1.77;;
5845;SDS011;2949;50.778;7.094;2023-01-01T15:57:50;3.87;;;1.37;;
5845;SDS011;2949;50.778;7.094;2023-01-01T16:00:18;4.33;;;1.00;;
5845;SDS011;2949;50.778;7.094;2023-01-01T16:02:51;8.70;;;1.90;;
5845;SDS011;2949;50.778;7.094;2023-01-01T16:05:23;2.70;;;1.50;;
5845;SDS011;2949;50.778;7.094;2023-01-01T16:07:57;3.73;;;1.33;;
5845;SDS011;2949;50.778;7.094;2023-01-01T16:10:27;2.00;;;1.30;;
5845;SDS011;2949;50.778;7.094;2023-01-01T16:12:53;4.50;;;1.87;;
5845;SDS011;2949;50.778;7.094;2023-01-01T16:15:19;6.13;;;2.73;;
5845;SDS011;2949;50.778;7.094;2023-01-01T16:17:44;3.30;;;1.90;;
5845;SDS011;2949;50.778;7.094;2023-01-01T16:20:17;4.00;;;1.50;;
5845;SDS011;2949;50.778;7.094;2023-01-01T16:22:45;2.90;;;1.40;;
5845;SDS011;2949;50.778;7.094;2023-01-01T16:25:14;4.40;;;1.33;;
5845;SDS011;2949;50.778;7.094;2023-01-01T16:27:44;4.60;;;2.60;;
5845;SDS011;2949;50.778;7.094;2023-01-01T16:30:24;11.07;;;2.03;;
5845;SDS011;2949;50.778;7.094;2023-01-01T16:32:52;2.07;;;1.90;;
5845;SDS011;2949;50.778;7.094;2023-01-01T16:35:18;4.10;;;2.03;;
5845;SDS011;2949;50.778;7.094;2023-01-01T16:37:43;2.40;;;1.43;;
5845;SDS011;2949;50.778;7.094;2023-01-01T16:40:09;5.70;;;1.70;;
5845;SDS011;2949;50.778;7.094;2023-01-01T16:42:35;1.57;;;1.33;;
5845;SDS011;2949;50.778;7.094;2023-01-01T16:45:00;9.10;;;2.30;;
5845;SDS011;2949;50.778;7.094;2023-01-01T16:47:26;5.43;;;1.83;;
5845;SDS011;2949;50.778;7.094;2023-01-01T16:49:52;7.40;;;2.00;;
5845;SDS011;2949;50.778;7.094;2023-01-01T16:52:17;7.53;;;2.80;;
5845;SDS011;2949;50.778;7.094;2023-01-01T16:54:43;3.10;;;1.70;;
5845;SDS011;2949;50.778;7.094;2023-01-01T16:57:09;5.70;;;1.93;;
5845;SDS011;2949;50.778;7.094;2023-01-01T16:59:35;9.10;;;1.87;;
5845;SDS011;2949;50.778;7.094;2023-01-01T17:02:01;7.17;;;2.17;;
5845;SDS011;2949;50.778;7.094;2023-01-01T17:04:27;4.27;;;2.40;;
5845;SDS011;2949;50.778;7.094;2023-01-01T17:07:07;4.30;;;2.37;;
5845;SDS011;2949;50.778;7.094;2023-01-01T17:09:33;5.23;;;1.97;;
5845;SDS011;2949;50.778;7.094;2023-01-01T17:11:58;2.43;;;1.60;;
5845;SDS011;2949;50.778;7.094;2023-01-01T17:14:24;11.33;;;3.60;;
5845;SDS011;2949;50.778;7.094;2023-01-01T17:16:50;13.63;;;5.03;;
5845;SDS011;2949;50.778;7.094;2023-01-01T17:19:20;9.97;;;2.67;;
5845;SDS011;2949;50.778;7.094;2023-01-01T17:21:47;11.33;;;2.27;;
5845;SDS011;2949;50.778;7.094;2023-01-01T17:24:14;12.27;;;2.87;;
5845;SDS011;2949;50.778;7.094;2023-01-01T17:26:40;10.30;;;3.20;;
5845;SDS011;2949;50.778;7.094;2023-01-01T17:29:06;4.67;;;2.90;;